createdAt,value
2023-04-18T00:00:12.606Z,19.13
2023-04-18T00:02:44.062Z,19.33
2023-04-18T00:05:18.238Z,20.27
2023-04-18T00:07:46.129Z,20.67
2023-04-18T00:10:13.685Z,20.80
2023-04-18T00:12:41.171Z,21.63
2023-04-18T00:15:09.522Z,21.80
2023-04-18T00:17:40.159Z,20.85
2023-04-18T00:20:12.570Z,21.88
2023-04-18T00:22:42.540Z,22.02
2023-04-18T00:25:11.161Z,20.63
2023-04-18T00:27:41.908Z,21.20
2023-04-18T00:30:10.027Z,23.67
2023-04-18T00:32:38.660Z,22.65
2023-04-18T00:35:06.606Z,19.70
2023-04-18T00:37:33.942Z,20.55
2023-04-18T00:40:01.251Z,24.05
2023-04-18T00:42:29.479Z,22.20
2023-04-18T00:44:56.783Z,24.25
2023-04-18T00:47:24.245Z,23.75
2023-04-18T00:49:51.815Z,22.92
2023-04-18T00:52:19.928Z,24.13
2023-04-18T00:54:47.711Z,24.33
2023-04-18T00:57:15.132Z,24.77
2023-04-18T00:59:43.245Z,24.52
2023-04-18T01:02:11.198Z,25.92
2023-04-18T01:04:38.985Z,23.02
2023-04-18T01:07:10.258Z,25.17
2023-04-18T01:09:37.937Z,25.85
2023-04-18T01:12:06.072Z,24.83
2023-04-18T01:14:33.328Z,23.05
2023-04-18T01:17:01.482Z,24.00
2023-04-18T01:19:28.730Z,24.42
2023-04-18T01:21:56.170Z,25.88
2023-04-18T01:24:25.772Z,26.23
2023-04-18T01:26:53.209Z,26.55
2023-04-18T01:29:20.610Z,25.45
2023-04-18T01:31:48.570Z,26.77
2023-04-18T01:34:18.695Z,25.45
2023-04-18T01:36:46.931Z,26.27
2023-04-18T01:39:14.712Z,25.63
2023-04-18T01:41:42.864Z,25.15
2023-04-18T01:44:10.538Z,25.88
2023-04-18T01:46:38.762Z,26.45
2023-04-18T01:49:06.684Z,26.55
2023-04-18T01:51:34.065Z,25.40
2023-04-18T01:54:01.348Z,27.52
2023-04-18T01:56:28.606Z,27.00
2023-04-18T01:58:58.534Z,27.77
2023-04-18T02:01:25.802Z,27.88
2023-04-18T02:03:53.398Z,25.52
2023-04-18T02:06:20.853Z,27.10
2023-04-18T02:08:48.613Z,27.85
2023-04-18T02:11:16.065Z,27.83
2023-04-18T02:13:43.348Z,26.67
2023-04-18T02:16:14.036Z,27.67
2023-04-18T02:18:44.329Z,26.60
2023-04-18T02:21:11.840Z,27.95
2023-04-18T02:23:39.182Z,27.45
2023-04-18T02:26:06.592Z,27.17
2023-04-18T02:28:34.213Z,25.95
2023-04-18T02:31:03.835Z,26.00
2023-04-18T02:33:31.180Z,26.95
2023-04-18T02:35:58.422Z,26.92
2023-04-18T02:38:25.695Z,26.45
2023-04-18T02:40:53.029Z,27.10
2023-04-18T02:43:21.361Z,26.70
2023-04-18T02:45:48.767Z,27.25
2023-04-18T02:48:16.143Z,27.15
2023-04-18T02:50:45.872Z,24.70
2023-04-18T02:53:13.462Z,26.20
2023-04-18T02:55:50.955Z,25.23
2023-04-18T02:58:19.446Z,25.40
2023-04-18T03:00:56.577Z,25.13
2023-04-18T03:03:42.110Z,25.27
2023-04-18T03:06:38.568Z,24.50
2023-04-18T03:09:07.295Z,24.30
2023-04-18T03:11:37.694Z,23.00
2023-04-18T03:14:06.801Z,22.13
2023-04-18T03:16:42.004Z,22.45
2023-04-18T03:19:12.532Z,21.52
2023-04-18T03:21:39.995Z,21.83
2023-04-18T03:24:07.933Z,22.75
2023-04-18T03:26:36.541Z,22.73
2023-04-18T03:29:03.941Z,24.02
2023-04-18T03:31:32.086Z,23.80
2023-04-18T03:33:59.387Z,23.52
2023-04-18T03:36:29.182Z,22.98
2023-04-18T03:38:56.772Z,24.85
2023-04-18T03:41:25.180Z,25.20
2023-04-18T03:43:52.577Z,24.50
2023-04-18T03:46:21.928Z,24.92
2023-04-18T03:48:51.873Z,26.42
2023-04-18T03:51:19.201Z,27.42
2023-04-18T03:53:47.205Z,28.63
2023-04-18T03:56:14.528Z,25.15
2023-04-18T03:58:52.892Z,28.15
2023-04-18T04:01:21.804Z,27.10
2023-04-18T04:03:51.541Z,26.52
2023-04-18T04:06:19.205Z,26.25
2023-04-18T04:08:46.561Z,26.02
2023-04-18T04:11:17.580Z,26.95
2023-04-18T04:13:45.243Z,25.42
2023-04-18T04:16:15.148Z,28.02
2023-04-18T04:18:42.715Z,27.50
2023-04-18T04:21:10.246Z,27.98
2023-04-18T04:23:46.248Z,27.98
2023-04-18T04:26:26.097Z,27.77
2023-04-18T04:29:03.501Z,25.08
2023-04-18T04:31:32.432Z,27.00
2023-04-18T04:33:59.772Z,25.48
2023-04-18T04:36:27.264Z,25.67
2023-04-18T04:38:56.809Z,24.88
2023-04-18T04:41:32.228Z,26.83
2023-04-18T04:44:01.754Z,25.17
2023-04-18T04:46:32.532Z,26.42
2023-04-18T04:49:01.224Z,24.85
2023-04-18T04:51:28.576Z,26.00
2023-04-18T04:53:56.522Z,26.05
2023-04-18T04:56:24.291Z,25.92
2023-04-18T04:58:53.077Z,24.98
2023-04-18T05:01:34.488Z,22.13
2023-04-18T05:04:01.945Z,24.98
2023-04-18T05:06:29.685Z,25.70
2023-04-18T05:08:59.523Z,24.33
2023-04-18T05:11:27.537Z,25.35
2023-04-18T05:13:54.965Z,25.35
2023-04-18T05:16:22.298Z,23.15
2023-04-18T05:18:49.566Z,24.77
2023-04-18T05:21:16.804Z,25.80
2023-04-18T05:23:44.164Z,23.52
2023-04-18T05:26:11.535Z,22.67
2023-04-18T05:28:38.946Z,22.55
2023-04-18T05:31:06.363Z,23.25
2023-04-18T05:33:33.762Z,22.10
2023-04-18T05:36:01.947Z,22.00
2023-04-18T05:38:29.251Z,23.20
2023-04-18T05:40:57.064Z,23.83
2023-04-18T05:43:24.359Z,22.50
2023-04-18T05:45:57.655Z,22.63
2023-04-18T05:48:25.277Z,22.23
2023-04-18T05:50:52.735Z,20.23
2023-04-18T05:53:20.116Z,20.83
2023-04-18T05:55:48.791Z,19.65
2023-04-18T05:58:16.239Z,22.05
2023-04-18T06:00:44.091Z,19.92
2023-04-18T06:03:11.798Z,19.50
2023-04-18T06:05:41.371Z,20.10
2023-04-18T06:08:12.061Z,19.00
2023-04-18T06:10:39.462Z,19.52
2023-04-18T06:13:15.195Z,20.63
2023-04-18T06:15:45.632Z,21.35
2023-04-18T06:18:12.996Z,20.73
2023-04-18T06:20:42.003Z,19.98
2023-04-18T06:23:09.468Z,22.05
2023-04-18T06:25:36.892Z,21.80
2023-04-18T06:28:04.227Z,21.42
2023-04-18T06:30:31.581Z,21.13
2023-04-18T06:32:58.909Z,22.55
2023-04-18T06:35:26.780Z,21.65
2023-04-18T06:37:54.486Z,22.00
2023-04-18T06:40:21.834Z,22.67
2023-04-18T06:42:49.230Z,22.02
2023-04-18T06:45:16.586Z,21.70
2023-04-18T06:47:44.164Z,21.50
2023-04-18T06:50:11.609Z,22.90
2023-04-18T06:52:42.500Z,21.27
2023-04-18T06:55:10.931Z,21.77
2023-04-18T06:57:42.478Z,26.95
2023-04-18T07:00:10.682Z,22.92
2023-04-18T07:02:39.165Z,23.58
2023-04-18T07:05:07.933Z,25.35
2023-04-18T07:07:35.926Z,22.33
2023-04-18T07:10:03.532Z,21.98
2023-04-18T07:12:30.852Z,21.33
2023-04-18T07:14:58.126Z,22.00
2023-04-18T07:17:25.547Z,21.80
2023-04-18T07:19:52.875Z,20.95
2023-04-18T07:22:20.266Z,20.65
2023-04-18T07:24:47.552Z,23.10
2023-04-18T07:27:15.423Z,21.77
2023-04-18T07:29:42.778Z,21.00
2023-04-18T07:32:11.350Z,20.35
2023-04-18T07:34:40.229Z,22.35
2023-04-18T07:37:07.670Z,22.15
2023-04-18T07:39:36.149Z,21.65
2023-04-18T07:42:04.712Z,23.58
2023-04-18T07:44:32.054Z,20.70
2023-04-18T07:47:00.786Z,21.95
2023-04-18T07:49:28.152Z,20.20
2023-04-18T07:51:55.859Z,22.23
2023-04-18T07:54:23.146Z,19.77
2023-04-18T07:56:50.440Z,20.23
2023-04-18T07:59:21.156Z,20.60
2023-04-18T08:01:48.470Z,18.52
2023-04-18T08:04:15.869Z,19.55
2023-04-18T08:06:43.343Z,18.98
2023-04-18T08:09:12.023Z,18.73
2023-04-18T08:11:41.262Z,19.00
2023-04-18T08:14:08.886Z,19.65
2023-04-18T08:16:36.861Z,17.80
2023-04-18T08:19:04.713Z,17.95
2023-04-18T08:21:32.495Z,18.98
2023-04-18T08:23:59.935Z,16.70
2023-04-18T08:26:27.736Z,16.88
2023-04-18T08:28:55.140Z,17.08
2023-04-18T08:31:22.489Z,16.20
2023-04-18T08:33:49.872Z,17.00
2023-04-18T08:36:17.509Z,15.68
2023-04-18T08:38:44.830Z,16.27
2023-04-18T08:41:12.189Z,16.20
2023-04-18T08:43:39.487Z,16.42
2023-04-18T08:46:07.922Z,16.13
2023-04-18T08:48:35.351Z,16.58
2023-04-18T08:51:03.057Z,17.60
2023-04-18T08:53:33.259Z,16.88
2023-04-18T08:56:02.071Z,16.58
2023-04-18T08:58:33.546Z,17.05
2023-04-18T09:01:00.942Z,16.52
2023-04-18T09:03:38.919Z,17.70
2023-04-18T09:06:21.251Z,16.83
2023-04-18T09:08:59.219Z,16.35
2023-04-18T09:11:29.372Z,17.75
2023-04-18T09:13:58.908Z,16.13
2023-04-18T09:16:27.749Z,15.77
2023-04-18T09:19:25.937Z,16.20
2023-04-18T09:22:01.896Z,16.55
2023-04-18T09:24:30.509Z,17.80
2023-04-18T09:26:59.709Z,17.05
2023-04-18T09:29:46.132Z,16.80
2023-04-18T09:32:29.264Z,17.60
2023-04-18T09:35:04.617Z,17.75
2023-04-18T09:37:32.453Z,17.52
2023-04-18T09:39:59.986Z,17.55
2023-04-18T09:42:39.614Z,18.55
2023-04-18T09:45:09.252Z,17.42
2023-04-18T09:47:37.447Z,18.98
2023-04-18T09:50:06.613Z,20.05
2023-04-18T09:52:36.465Z,20.83
2023-04-18T09:55:06.609Z,20.13
2023-04-18T09:57:35.673Z,19.33
2023-04-18T10:00:21.415Z,19.80
2023-04-18T10:03:08.854Z,20.50
2023-04-18T10:05:39.047Z,20.50
2023-04-18T10:08:08.009Z,19.75
2023-04-18T10:10:37.922Z,20.60
2023-04-18T10:13:11.112Z,19.38
2023-04-18T10:15:39.147Z,18.92
2023-04-18T10:18:14.117Z,20.00
2023-04-18T10:20:42.828Z,19.10
2023-04-18T10:23:32.142Z,17.92
2023-04-18T10:26:00.022Z,18.50
2023-04-18T10:28:28.209Z,18.65
2023-04-18T10:31:04.015Z,18.65
2023-04-18T10:33:42.387Z,20.60
2023-04-18T10:36:12.601Z,18.63
2023-04-18T10:39:00.144Z,20.95
2023-04-18T10:41:32.204Z,21.70
2023-04-18T10:44:09.128Z,20.65
2023-04-18T10:46:53.908Z,21.42
2023-04-18T10:49:24.010Z,21.27
2023-04-18T10:52:13.269Z,21.60
2023-04-18T10:55:05.543Z,20.77
2023-04-18T10:57:42.596Z,20.45
2023-04-18T11:00:13.810Z,20.65
2023-04-18T11:02:48.181Z,21.38
2023-04-18T11:05:20.884Z,22.33
2023-04-18T11:07:49.021Z,22.45
2023-04-18T11:10:24.559Z,21.75
2023-04-18T11:12:52.902Z,22.45
2023-04-18T11:15:25.286Z,21.10
2023-04-18T11:18:03.163Z,20.30
2023-04-18T11:20:46.008Z,21.52
2023-04-18T11:23:55.043Z,21.05
2023-04-18T11:26:37.212Z,20.35
2023-04-18T11:29:09.315Z,19.85
2023-04-18T11:31:39.092Z,19.65
2023-04-18T11:34:06.449Z,20.88
2023-04-18T11:36:38.054Z,20.13
2023-04-18T11:39:06.342Z,21.23
2023-04-18T11:41:33.650Z,21.55
2023-04-18T11:44:05.694Z,21.38
2023-04-18T11:46:39.651Z,20.25
2023-04-18T11:49:07.029Z,20.40
2023-04-18T11:51:44.640Z,20.75
2023-04-18T11:54:45.508Z,20.77
2023-04-18T11:57:31.942Z,19.92
2023-04-18T12:00:01.507Z,20.17
2023-04-18T12:02:44.450Z,19.98
2023-04-18T12:05:15.054Z,19.83
2023-04-18T12:07:45.168Z,21.00
2023-04-18T12:10:30.928Z,21.02
2023-04-18T12:12:59.564Z,20.83
2023-04-18T12:15:30.827Z,20.35
2023-04-18T12:18:04.794Z,21.02
2023-04-18T12:20:51.539Z,20.17
2023-04-18T12:23:41.847Z,21.15
2023-04-18T12:26:15.142Z,21.17
2023-04-18T12:28:46.419Z,20.65
2023-04-18T12:31:13.752Z,21.02
2023-04-18T12:33:41.046Z,21.77
2023-04-18T12:36:10.547Z,20.17
2023-04-18T12:38:38.361Z,19.52
2023-04-18T12:41:05.940Z,20.27
2023-04-18T12:43:33.204Z,20.50
2023-04-18T12:46:00.695Z,19.20
2023-04-18T12:48:29.297Z,20.00
2023-04-18T12:50:56.644Z,19.38
2023-04-18T12:53:23.976Z,20.02
2023-04-18T12:55:54.449Z,19.13
2023-04-18T12:58:23.935Z,18.95
2023-04-18T13:00:51.448Z,17.80
2023-04-18T13:03:18.998Z,18.88
2023-04-18T13:05:46.696Z,19.20
2023-04-18T13:08:17.587Z,18.77
2023-04-18T13:10:47.372Z,18.95
2023-04-18T13:13:14.745Z,18.90
2023-04-18T13:15:42.847Z,18.50
2023-04-18T13:18:10.604Z,19.10
2023-04-18T13:20:38.012Z,18.48
2023-04-18T13:23:08.645Z,18.40
2023-04-18T13:25:36.084Z,18.55
2023-04-18T13:28:03.631Z,16.10
2023-04-18T13:30:31.894Z,17.35
2023-04-18T13:32:59.349Z,18.35
2023-04-18T13:35:26.764Z,17.83
2023-04-18T13:37:54.073Z,16.38
2023-04-18T13:40:21.387Z,16.83
2023-04-18T13:42:48.663Z,17.15
2023-04-18T13:45:16.120Z,16.38
2023-04-18T13:47:46.477Z,15.82
2023-04-18T13:50:13.886Z,16.25
2023-04-18T13:52:41.154Z,16.40
2023-04-18T13:55:10.510Z,16.25
2023-04-18T13:57:37.891Z,16.55
2023-04-18T14:00:06.610Z,15.80
2023-04-18T14:02:39.491Z,16.38
2023-04-18T14:05:07.680Z,15.70
2023-04-18T14:07:35.401Z,16.70
2023-04-18T14:10:02.759Z,16.88
2023-04-18T14:12:30.062Z,15.77
2023-04-18T14:14:57.492Z,13.98
2023-04-18T14:17:24.912Z,15.48
2023-04-18T14:19:52.241Z,16.48
2023-04-18T14:22:19.621Z,14.45
2023-04-18T14:24:46.944Z,14.98
2023-04-18T14:27:14.322Z,15.48
2023-04-18T14:29:41.653Z,12.57
2023-04-18T14:32:08.948Z,13.40
2023-04-18T14:34:37.411Z,13.40
2023-04-18T14:37:06.291Z,13.30
2023-04-18T14:39:33.637Z,13.38
2023-04-18T14:42:01.477Z,14.35
2023-04-18T14:44:30.494Z,12.90
2023-04-18T14:46:57.872Z,13.90
2023-04-18T14:49:25.207Z,12.75
2023-04-18T14:51:52.441Z,11.93
2023-04-18T14:54:19.758Z,12.50
2023-04-18T14:56:47.122Z,12.27
2023-04-18T14:59:16.553Z,12.68
2023-04-18T15:01:44.202Z,12.55
2023-04-18T15:04:11.639Z,12.32
2023-04-18T15:06:39.236Z,12.45
2023-04-18T15:09:06.938Z,12.65
2023-04-18T15:11:34.266Z,12.35
2023-04-18T15:14:01.863Z,13.05
2023-04-18T15:16:29.246Z,13.13
2023-04-18T15:18:56.522Z,13.15
2023-04-18T15:21:23.823Z,13.00
2023-04-18T15:23:51.167Z,12.85
2023-04-18T15:26:18.488Z,14.73
2023-04-18T15:28:46.469Z,15.13
2023-04-18T15:31:15.536Z,15.07
2023-04-18T15:33:42.814Z,16.00
2023-04-18T15:36:16.762Z,15.50
2023-04-18T15:38:44.486Z,17.30
2023-04-18T15:41:11.907Z,16.40
2023-04-18T15:43:42.043Z,15.63
2023-04-18T15:46:10.207Z,16.75
2023-04-18T15:48:37.843Z,16.23
2023-04-18T15:51:05.338Z,15.85
2023-04-18T15:53:34.136Z,17.23
2023-04-18T15:56:01.823Z,17.92
2023-04-18T15:58:30.235Z,17.38
2023-04-18T16:00:57.738Z,18.10
2023-04-18T16:03:25.482Z,17.25
2023-04-18T16:05:53.387Z,18.13
2023-04-18T16:08:21.272Z,17.10
2023-04-18T16:10:48.592Z,16.88
2023-04-18T16:13:16.063Z,16.98
2023-04-18T16:15:43.406Z,18.27
2023-04-18T16:18:10.960Z,17.70
2023-04-18T16:20:38.348Z,16.48
2023-04-18T16:23:05.886Z,17.25
2023-04-18T16:25:33.198Z,19.50
2023-04-18T16:28:00.571Z,18.38
2023-04-18T16:30:27.978Z,18.60
2023-04-18T16:32:55.445Z,20.30
2023-04-18T16:35:23.031Z,18.63
2023-04-18T16:37:50.308Z,18.45
2023-04-18T16:40:17.645Z,18.17
2023-04-18T16:42:44.997Z,17.08
2023-04-18T16:45:12.640Z,18.17
2023-04-18T16:47:39.978Z,18.67
2023-04-18T16:50:08.087Z,18.00
2023-04-18T16:52:35.425Z,19.63
2023-04-18T16:55:02.817Z,18.45
2023-04-18T16:57:30.124Z,17.08
2023-04-18T16:59:58.239Z,16.92
2023-04-18T17:02:25.702Z,17.67
2023-04-18T17:04:53.108Z,17.80
2023-04-18T17:07:20.559Z,17.00
2023-04-18T17:09:47.906Z,16.33
2023-04-18T17:12:15.569Z,16.55
2023-04-18T17:14:42.872Z,17.75
2023-04-18T17:17:10.534Z,17.95
2023-04-18T17:19:37.782Z,16.33
2023-04-18T17:22:05.399Z,16.05
2023-04-18T17:24:32.853Z,16.65
2023-04-18T17:27:01.168Z,17.92
2023-04-18T17:29:28.500Z,18.15
2023-04-18T17:31:56.320Z,17.02
2023-04-18T17:34:23.652Z,17.55
2023-04-18T17:36:50.953Z,17.27
2023-04-18T17:39:18.315Z,17.95
2023-04-18T17:41:46.575Z,16.80
2023-04-18T17:44:13.969Z,14.68
2023-04-18T17:46:41.301Z,16.80
2023-04-18T17:49:08.689Z,15.90
2023-04-18T17:51:36.101Z,15.38
2023-04-18T17:54:05.071Z,17.20
2023-04-18T17:56:32.687Z,14.68
2023-04-18T17:59:01.054Z,15.13
2023-04-18T18:01:30.486Z,15.50
2023-04-18T18:03:58.795Z,15.50
2023-04-18T18:06:29.663Z,15.82
2023-04-18T18:08:57.458Z,15.15
2023-04-18T18:11:27.193Z,14.98
2023-04-18T18:13:55.460Z,16.48
2023-04-18T18:16:24.673Z,16.17
2023-04-18T18:18:52.845Z,14.88
2023-04-18T18:21:20.694Z,13.25
2023-04-18T18:23:49.285Z,15.05
2023-04-18T18:26:17.400Z,15.32
2023-04-18T18:28:45.106Z,16.77
2023-04-18T18:31:12.939Z,16.25
2023-04-18T18:33:40.525Z,17.88
2023-04-18T18:36:07.879Z,16.17
2023-04-18T18:38:36.273Z,16.02
2023-04-18T18:41:04.896Z,16.10
2023-04-18T18:43:33.433Z,14.50
2023-04-18T18:46:01.233Z,14.98
2023-04-18T18:48:31.130Z,16.33
2023-04-18T18:50:58.742Z,16.92
2023-04-18T18:53:26.331Z,20.45
2023-04-18T18:55:53.895Z,17.05
2023-04-18T18:58:21.844Z,17.55
2023-04-18T19:00:51.602Z,17.60
2023-04-18T19:03:21.276Z,15.52
2023-04-18T19:05:49.169Z,16.38
2023-04-18T19:08:17.323Z,18.27
2023-04-18T19:10:45.018Z,17.45
2023-04-18T19:13:12.627Z,19.55
2023-04-18T19:15:40.537Z,17.60
2023-04-18T19:18:08.624Z,19.08
2023-04-18T19:20:39.084Z,16.63
2023-04-18T19:23:06.775Z,16.88
2023-04-18T19:25:34.497Z,15.70
2023-04-18T19:28:02.110Z,18.98
2023-04-18T19:30:29.742Z,15.10
2023-04-18T19:32:59.534Z,15.73
2023-04-18T19:35:27.463Z,19.67
2023-04-18T19:38:01.522Z,18.13
2023-04-18T19:40:30.035Z,21.02
2023-04-18T19:42:58.084Z,18.90
2023-04-18T19:45:26.073Z,20.33
2023-04-18T19:47:53.707Z,18.80
2023-04-18T19:50:21.392Z,20.27
2023-04-18T19:52:49.048Z,18.10
2023-04-18T19:55:16.592Z,19.10
2023-04-18T19:57:44.467Z,20.65
2023-04-18T20:00:14.103Z,19.90
2023-04-18T20:02:42.900Z,20.98
2023-04-18T20:05:10.834Z,20.73
2023-04-18T20:07:38.577Z,20.90
2023-04-18T20:10:08.832Z,22.52
2023-04-18T20:12:36.669Z,20.60
2023-04-18T20:15:05.720Z,22.35
2023-04-18T20:17:34.731Z,21.05
2023-04-18T20:20:03.171Z,20.52
2023-04-18T20:22:32.382Z,21.38
2023-04-18T20:25:01.144Z,19.17
2023-04-18T20:27:28.803Z,19.83
2023-04-18T20:29:57.307Z,23.52
2023-04-18T20:32:25.111Z,22.65
2023-04-18T20:34:52.562Z,22.90
2023-04-18T20:37:20.167Z,21.27
2023-04-18T20:39:47.737Z,21.90
2023-04-18T20:42:15.712Z,19.95
2023-04-18T20:44:44.662Z,18.55
2023-04-18T20:47:14.734Z,19.33
2023-04-18T20:49:43.027Z,20.80
2023-04-18T20:52:10.632Z,21.85
2023-04-18T20:54:38.008Z,20.30
2023-04-18T20:57:05.499Z,20.85
2023-04-18T20:59:32.814Z,21.70
2023-04-18T21:02:00.277Z,22.10
2023-04-18T21:04:27.888Z,21.67
2023-04-18T21:06:55.374Z,22.35
2023-04-18T21:09:23.028Z,22.38
2023-04-18T21:11:50.310Z,22.33
2023-04-18T21:14:17.842Z,24.30
2023-04-18T21:16:45.197Z,22.73
2023-04-18T21:19:12.779Z,23.40
2023-04-18T21:21:40.379Z,22.25
2023-04-18T21:24:07.733Z,23.08
2023-04-18T21:26:35.105Z,22.67
2023-04-18T21:29:04.719Z,18.65
2023-04-18T21:31:34.356Z,21.15
2023-04-18T21:34:04.466Z,22.25
2023-04-18T21:36:32.200Z,20.55
2023-04-18T21:39:00.931Z,22.65
2023-04-18T21:41:28.430Z,21.73
2023-04-18T21:43:55.782Z,22.17
2023-04-18T21:46:23.182Z,21.90
2023-04-18T21:48:50.613Z,21.73
2023-04-18T21:51:18.208Z,20.48
2023-04-18T21:53:45.818Z,20.25
2023-04-18T21:56:14.046Z,20.10
2023-04-18T21:58:41.343Z,18.10
2023-04-18T22:01:08.720Z,17.95
2023-04-18T22:03:37.411Z,16.30
2023-04-18T22:06:05.163Z,18.08
2023-04-18T22:08:32.988Z,16.83
2023-04-18T22:11:00.336Z,15.63
2023-04-18T22:13:33.141Z,14.30
2023-04-18T22:16:03.458Z,14.27
2023-04-18T22:18:37.901Z,16.60
2023-04-18T22:21:06.104Z,15.18
2023-04-18T22:23:33.437Z,14.07
2023-04-18T22:26:00.946Z,15.02
2023-04-18T22:28:28.623Z,16.98
2023-04-18T22:30:56.068Z,18.25
2023-04-18T22:33:23.572Z,16.55
2023-04-18T22:35:50.978Z,19.52
2023-04-18T22:38:18.455Z,19.95
2023-04-18T22:40:45.851Z,16.63
2023-04-18T22:43:13.113Z,15.68
2023-04-18T22:45:40.561Z,15.93
2023-04-18T22:48:11.417Z,13.85
2023-04-18T22:50:42.804Z,14.30
2023-04-18T22:53:11.161Z,13.73
2023-04-18T22:55:40.268Z,16.35
2023-04-18T22:58:08.014Z,16.85
2023-04-18T23:00:35.795Z,16.02
2023-04-18T23:03:03.750Z,13.35
2023-04-18T23:05:31.241Z,14.55
2023-04-18T23:08:00.338Z,15.75
2023-04-18T23:10:28.179Z,14.88
2023-04-18T23:12:55.795Z,14.27
2023-04-18T23:15:23.147Z,16.90
2023-04-18T23:17:53.063Z,19.15
2023-04-18T23:20:21.370Z,17.27
2023-04-18T23:22:51.351Z,16.10
2023-04-18T23:25:19.615Z,18.25
2023-04-18T23:27:47.303Z,16.58
2023-04-18T23:30:14.758Z,18.60
2023-04-18T23:32:42.214Z,17.05
2023-04-18T23:35:10.465Z,15.73
2023-04-18T23:37:37.816Z,14.50
2023-04-18T23:40:06.651Z,14.05
2023-04-18T23:42:34.790Z,13.60
2023-04-18T23:45:03.923Z,12.75
2023-04-18T23:47:31.567Z,12.10
2023-04-18T23:49:58.969Z,12.05
2023-04-18T23:52:26.502Z,12.10
2023-04-18T23:54:53.918Z,10.93
2023-04-18T23:57:21.169Z,9.77
2023-04-18T23:59:48.800Z,11.25
